Airfield :
LOGIN :

Register | Disclaimer

   EN    FR    IT 

 










Legend :    VFR   Marginal VFR   IFR   Intensive IFR   Very Intensive IFR
Visi :
Ceiling :
>= 8 km
>= 3000ft
5 to 8 km
1000 to 3000 ft
1500m to 5 km
500 to 1000 ft
800 to 1500m
200 to 500 ft
< 800m
< 200 ft
Symbols :   Thunderstorms  Fog  Heavy snow  Heavy precipitations  Wind > 20 kt
SIGMETs :     Misc.  Thunderstorms  Icing  Turbulence  Mountain Waves  Volcanic Ashes







- Airport Elevation : -15 ft
- IATA code : RTM


EHRD - Rotterdam Zestienhoven

CURRENT METAR :
  • 190255Z AUTO 31011KT 260V360 9999 FEW015CB SCT031 BKN037 07/03 Q1016 REDZ NOSIG

EXPIRED METARs :
  • 190225Z AUTO 29007KT 260V340 9999 NSC 06/02 Q1016 NOSIG
  • 190155Z AUTO 30009KT 240V340 9999 FEW015CB 05/02 Q1016 NOSIG
  • 190125Z AUTO 29004KT 260V320 9999 FEW015CB SCT046 05/03 Q1016 NOSIG
  • 190055Z AUTO 35011KT 300V030 9999 -DZ FEW015CB SCT040 BKN045 06/02 Q1016 NOSIG
  • 190025Z AUTO 31010KT 280V350 9999 FEW017CB 06/02 Q1016 NOSIG

TAF TAF EHRD
Valid from the 19 at 00:00 until the 20 at 06:00 UTC


182302Z 1900/2006 31012KT 9999 SCT022
PROB30
TEMPO 1900/1918 32018G28KT 7000 -SHRA FEW018CB BKN030
BECMG 1907/1910 31017G27KT
BECMG 1915/1918 30012KT
BECMG 1921/1924 27007KT
BECMG 2002/2005 22008KT 7000 RA SCT012 BKN020
No reported NOTAMs for that airfield.



MET'MAP, your aeronautical weather chart ! - Copyright ORBIFLY December 2007 - Disclaimer

ORBIFLY MET'MAP TEAM :

Programming & Development : Alexandra Zaïnal
Concept & Development : Baudouin d'Aumeries
Co-Development & Prog : Marc-Olivier Méhu
Technical & hardware support : Manuel Goepfert

Contact : metmap@orbifly.com




SOURCES & CREDITS :

   NOAA